createdAt,value
2023-01-21T21:04:40.016Z,25.23
2023-01-21T21:07:26.635Z,25.25
2023-01-21T21:10:20.938Z,26.90
2023-01-21T21:13:08.148Z,23.95
2023-01-21T21:15:54.976Z,24.45
2023-01-21T21:18:41.437Z,25.67
2023-01-21T21:21:29.391Z,24.88
2023-01-21T21:24:16.408Z,24.10
2023-01-21T21:27:03.566Z,23.70
2023-01-21T21:29:52.317Z,26.23
2023-01-21T21:32:38.964Z,23.02
2023-01-21T21:35:28.505Z,26.42
2023-01-21T21:38:21.732Z,29.17
2023-01-21T21:41:27.921Z,24.58
2023-01-21T21:44:14.566Z,26.98
2023-01-21T21:47:18.701Z,27.40
2023-01-21T21:50:05.601Z,23.70
2023-01-21T21:52:52.596Z,26.90
2023-01-21T21:55:40.684Z,25.52
2023-01-21T21:58:27.859Z,26.40
2023-01-21T22:01:16.398Z,27.13
2023-01-21T22:04:04.087Z,27.15
2023-01-21T22:06:50.776Z,30.15
2023-01-21T22:09:37.295Z,28.90
2023-01-21T22:12:25.449Z,27.35
2023-01-21T22:15:12.080Z,27.90
2023-01-21T22:17:58.224Z,27.02
2023-01-21T22:20:44.926Z,27.17
2023-01-21T22:23:32.429Z,27.95
2023-01-21T22:26:21.164Z,26.25
2023-01-21T22:29:09.059Z,28.05
2023-01-21T22:31:55.817Z,25.42
2023-01-21T22:34:43.955Z,25.08
2023-01-21T22:37:30.551Z,27.55
2023-01-21T22:40:17.211Z,29.65
2023-01-21T22:43:03.575Z,27.60
2023-01-21T22:45:52.628Z,26.13
2023-01-21T22:48:39.317Z,25.15
2023-01-21T22:51:26.168Z,24.90
2023-01-21T22:54:13.305Z,24.33
2023-01-21T22:57:00.051Z,26.42
2023-01-21T23:02:50.132Z,22.92
2023-01-21T23:05:36.847Z,23.42
2023-01-21T23:08:23.554Z,23.88
2023-01-21T23:11:12.341Z,23.40
2023-01-21T23:13:58.568Z,24.40
2023-01-21T23:16:44.991Z,23.42
2023-01-21T23:19:32.917Z,22.80
2023-01-21T23:22:19.238Z,21.55
2023-01-21T23:25:06.732Z,21.55
2023-01-21T23:27:53.141Z,21.88
2023-01-21T23:30:39.660Z,23.02
2023-01-21T23:33:26.258Z,21.67
2023-01-21T23:36:14.163Z,19.10
2023-01-21T23:39:00.601Z,20.60
2023-01-21T23:41:47.121Z,21.60
2023-01-21T23:44:33.805Z,20.02
2023-01-21T23:47:20.275Z,20.20
2023-01-21T23:50:08.629Z,20.40
2023-01-21T23:52:56.728Z,20.48
2023-01-21T23:55:43.410Z,19.40
2023-01-21T23:58:29.610Z,20.60
